Time;durP1;ratioP1;P1;durP2;ratioP2;P2;SDS_P1;SDS_P2;PMS_P1;PMS_P2;Temp;Humidity;BMP_temperature;BMP_pressure;BME280_temperature;BME280_humidity;BME280_pressure;Samples;Min_cycle;Max_cycle;Signal;HPM_P1;HPM_P2
2024/01/15 00:00:07;;;;;;;37.00;21.52;;;;;;;-5.36;61.48;92845.41;523957;28;885;-68
2024/01/15 00:00:22;;;;;;;36.25;21.88;;;;;;;-5.41;61.78;92844.09;523853;28;817;-68
2024/01/15 00:00:39;;;;;;;35.07;22.57;;;;;;;-5.47;61.94;92842.50;523965;28;794;-68
2024/01/15 00:00:54;;;;;;;33.70;21.30;;;;;;;-5.54;61.57;92846.28;523932;28;920;-68
2024/01/15 00:01:10;;;;;;;31.97;20.73;;;;;;;-5.59;61.54;92832.75;523925;28;852;-68
2024/01/15 00:01:25;;;;;;;32.42;21.75;;;;;;;-5.54;61.96;92843.59;523973;28;912;-68
2024/01/15 00:01:46;;;;;;;38.27;24.30;;;;;;;-5.52;61.81;92846.56;523902;28;841;-68
2024/01/15 00:02:03;;;;;;;46.40;28.88;;;;;;;-5.48;61.61;92843.72;523963;28;853;-68
2024/01/15 00:02:18;;;;;;;47.45;29.52;;;;;;;-5.45;61.63;92840.84;524001;28;878;-68
2024/01/15 00:02:34;;;;;;;44.70;27.33;;;;;;;-5.40;61.43;92839.47;523749;28;908;-68
2024/01/15 00:02:49;;;;;;;43.72;27.05;;;;;;;-5.43;61.65;92830.34;523994;28;774;-68
2024/01/15 00:03:04;;;;;;;48.47;30.53;;;;;;;-5.38;61.75;92831.66;523899;28;850;-68
2024/01/15 00:03:20;;;;;;;56.58;33.65;;;;;;;-5.31;61.69;92836.69;523922;28;889;-68
2024/01/15 00:03:35;;;;;;;60.53;36.10;;;;;;;-5.29;61.27;92836.22;524029;28;1164;-68
2024/01/15 00:03:51;;;;;;;62.13;36.10;;;;;;;-5.31;61.63;92835.94;525921;28;833;-68
2024/01/15 00:04:06;;;;;;;63.13;35.57;;;;;;;-5.30;61.22;92838.16;525947;28;786;-68
2024/01/15 00:04:22;;;;;;;63.73;36.20;;;;;;;-5.30;61.70;92845.47;526045;28;851;-68
2024/01/15 00:04:40;;;;;;;63.05;36.55;;;;;;;-5.33;61.33;92835.66;524157;28;1317;-68
2024/01/15 00:04:56;;;;;;;58.47;34.40;;;;;;;-5.33;61.82;92832.97;523912;28;893;-68
2024/01/15 00:05:11;;;;;;;64.77;36.50;;;;;;;-5.33;61.79;92838.34;523938;28;814;-68
2024/01/15 00:05:27;;;;;;;67.93;38.00;;;;;;;-5.33;61.75;92838.34;523786;28;873;-68
2024/01/15 00:05:42;;;;;;;63.80;37.47;;;;;;;-5.32;61.97;92835.19;523748;28;1770;-68
2024/01/15 00:05:58;;;;;;;65.22;38.92;;;;;;;-5.29;61.52;92839.66;523914;28;801;-68
2024/01/15 00:06:13;;;;;;;70.50;39.77;;;;;;;-5.27;61.55;92842.63;523840;28;834;-68
2024/01/15 00:06:28;;;;;;;72.03;40.03;;;;;;;-5.26;61.73;92833.34;524000;28;793;-68
2024/01/15 00:06:44;;;;;;;73.83;40.00;;;;;;;-5.25;61.42;92834.84;523862;28;991;-68
2024/01/15 00:06:59;;;;;;;72.80;39.10;;;;;;;-5.23;61.93;92834.38;523937;28;924;-68
2024/01/15 00:07:15;;;;;;;68.22;39.13;;;;;;;-5.22;61.75;92836.59;523907;28;951;-68
2024/01/15 00:07:30;;;;;;;70.93;38.93;;;;;;;-5.20;61.59;92836.13;523948;28;798;-68
2024/01/15 00:07:46;;;;;;;73.60;38.40;;;;;;;-5.25;61.15;92837.53;523915;28;1003;-68
2024/01/15 00:08:01;;;;;;;69.67;37.80;;;;;;;-5.33;61.43;92841.03;523869;28;825;-68
2024/01/15 00:08:17;;;;;;;66.95;38.22;;;;;;;-5.38;61.25;92834.34;523874;28;858;-68
2024/01/15 00:08:32;;;;;;;64.43;38.07;;;;;;;-5.45;61.95;92837.41;523891;28;850;-68
2024/01/15 00:08:47;;;;;;;66.00;37.65;;;;;;;-5.52;61.93;92840.44;523953;28;864;-68
2024/01/15 00:09:03;;;;;;;65.43;37.80;;;;;;;-5.52;61.66;92837.75;523830;28;786;-68
2024/01/15 00:09:18;;;;;;;58.42;37.30;;;;;;;-5.50;62.03;92835.38;524016;28;877;-68
2024/01/15 00:09:35;;;;;;;62.40;37.70;;;;;;;-5.49;61.50;92834.91;523874;28;826;-68
2024/01/15 00:09:50;;;;;;;66.15;37.40;;;;;;;-5.46;61.97;92838.63;523977;28;900;-68
2024/01/15 00:10:06;;;;;;;63.03;37.83;;;;;;;-5.43;61.88;92835.00;523905;28;912;-68
2024/01/15 00:10:21;;;;;;;66.32;39.05;;;;;;;-5.39;61.84;92835.53;523914;28;953;-68
2024/01/15 00:10:37;;;;;;;73.43;41.27;;;;;;;-5.37;61.38;92838.50;523936;28;917;-68
2024/01/15 00:10:52;;;;;;;77.18;43.13;;;;;;;-5.37;61.34;92831.19;523919;28;789;-68
2024/01/15 00:11:08;;;;;;;75.43;42.70;;;;;;;-5.34;61.48;92834.91;523944;28;1088;-68
2024/01/15 00:11:23;;;;;;;72.53;40.90;;;;;;;-5.32;61.46;92839.81;523937;28;837;-68
2024/01/15 00:11:39;;;;;;;62.80;37.37;;;;;;;-5.30;61.50;92842.78;523945;28;817;-66
2024/01/15 00:11:54;;;;;;;57.40;36.20;;;;;;;-5.30;61.63;92838.16;523932;28;854;-68
2024/01/15 00:12:09;;;;;;;60.88;37.83;;;;;;;-5.28;61.42;92841.13;523960;28;904;-68
2024/01/15 00:12:25;;;;;;;62.17;38.07;;;;;;;-5.27;61.67;92842.63;523868;28;832;-68
2024/01/15 00:12:40;;;;;;;62.72;38.20;;;;;;;-5.25;60.86;92842.16;523939;28;1151;-68
2024/01/15 00:12:56;;;;;;;62.17;38.07;;;;;;;-5.26;61.46;92838.72;524000;28;785;-68
2024/01/15 00:13:11;;;;;;;59.08;37.22;;;;;;;-5.25;61.27;92836.78;523889;28;770;-68
2024/01/15 00:13:27;;;;;;;63.87;38.10;;;;;;;-5.25;61.06;92837.53;523969;28;896;-68
2024/01/15 00:13:42;;;;;;;68.70;38.83;;;;;;;-5.32;61.21;92837.88;523855;28;1080;-68
2024/01/15 00:13:58;;;;;;;63.67;37.97;;;;;;;-5.38;61.75;92842.41;523878;28;789;-68
2024/01/15 00:14:14;;;;;;;58.58;37.13;;;;;;;-5.37;61.41;92838.50;523879;28;902;-68
2024/01/15 00:14:29;;;;;;;60.03;38.00;;;;;;;-5.34;61.67;92839.53;523898;28;869;-68
2024/01/15 00:14:45;;;;;;;63.00;37.83;;;;;;;-5.33;61.47;92839.09;523861;28;853;-68
2024/01/15 00:15:00;;;;;;;60.30;36.40;;;;;;;-5.31;61.78;92839.38;523881;28;802;-68
2024/01/15 00:15:16;;;;;;;59.23;36.27;;;;;;;-5.29;61.58;92838.91;523869;28;860;-68
2024/01/15 00:15:31;;;;;;;62.60;36.58;;;;;;;-5.29;61.43;92844.28;523780;28;1973;-68
2024/01/15 00:15:47;;;;;;;58.47;34.72;;;;;;;-5.29;61.30;92833.53;523908;28;916;-68
2024/01/15 00:16:03;;;;;;;57.97;33.77;;;;;;;-5.31;61.97;92839.38;523923;28;766;-68
2024/01/15 00:16:19;;;;;;;60.38;34.05;;;;;;;-5.43;61.50;92835.00;523933;28;1077;-68
2024/01/15 00:16:34;;;;;;;57.27;33.73;;;;;;;-5.57;62.09;92836.47;523808;28;869;-68
2024/01/15 00:16:51;;;;;;;55.70;33.65;;;;;;;-5.68;62.23;92832.81;523908;28;825;-68
2024/01/15 00:17:06;;;;;;;52.40;32.10;;;;;;;-5.97;62.71;92811.25;523883;28;912;-68
2024/01/15 00:17:22;;;;;;;49.67;30.67;;;;;;;-5.77;62.88;92839.00;523890;28;908;-68
2024/01/15 00:17:37;;;;;;;51.15;31.08;;;;;;;-5.76;62.96;92837.78;523867;28;904;-68
2024/01/15 00:17:52;;;;;;;53.97;31.83;;;;;;;-5.77;63.38;92836.31;523877;28;849;-68
2024/01/15 00:18:08;;;;;;;56.70;32.95;;;;;;;-5.75;63.34;92843.91;523926;28;1094;-68
2024/01/15 00:18:23;;;;;;;54.37;32.27;;;;;;;-5.75;62.81;92847.34;523860;28;798;-68
2024/01/15 00:18:39;;;;;;;51.90;30.90;;;;;;;-5.73;63.25;92844.19;523967;28;850;-68
2024/01/15 00:18:54;;;;;;;53.03;32.00;;;;;;;-5.74;62.96;92848.81;523923;28;856;-67
2024/01/15 00:19:10;;;;;;;53.38;31.92;;;;;;;-5.71;62.83;92841.78;523800;28;908;-68
2024/01/15 00:19:26;;;;;;;50.27;30.90;;;;;;;-5.70;62.77;92843.28;523866;28;1039;-68
2024/01/15 00:19:42;;;;;;;47.30;30.27;;;;;;;-5.68;62.97;92838.94;523878;28;1723;-68
2024/01/15 00:19:57;;;;;;;48.67;30.03;;;;;;;-5.73;63.25;92836.13;523852;28;886;-68
2024/01/15 00:20:13;;;;;;;49.08;28.90;;;;;;;-5.69;62.74;92844.75;523859;28;797;-68
2024/01/15 00:20:28;;;;;;;47.83;27.10;;;;;;;-5.75;63.23;92846.59;523799;28;952;-68
2024/01/15 00:20:44;;;;;;;46.70;26.33;;;;;;;-5.78;63.24;92850.94;523905;28;762;-68
2024/01/15 00:20:59;;;;;;;45.07;25.17;;;;;;;-5.83;62.77;92845.47;523895;28;881;-68
2024/01/15 00:21:14;;;;;;;36.75;21.35;;;;;;;-5.86;62.91;92852.53;523841;28;774;-68
2024/01/15 00:21:30;;;;;;;30.33;19.37;;;;;;;-5.90;62.83;92845.84;523967;28;790;-68
2024/01/15 00:21:45;;;;;;;28.38;18.90;;;;;;;-6.01;63.53;92849.06;523935;28;857;-68
2024/01/15 00:22:01;;;;;;;28.80;18.17;;;;;;;-6.03;63.82;92850.72;523851;28;763;-68
2024/01/15 00:22:17;;;;;;;30.57;18.47;;;;;;;-6.03;63.72;92853.41;523948;28;802;-68
2024/01/15 00:22:32;;;;;;;31.80;19.63;;;;;;;-6.00;63.70;92847.88;523886;28;798;-68
2024/01/15 00:22:50;;;;;;;34.97;20.13;;;;;;;-5.96;63.21;92851.13;523924;28;920;-68
2024/01/15 00:23:05;;;;;;;35.90;20.52;;;;;;;-5.91;63.63;92847.06;523932;28;872;-68
2024/01/15 00:23:21;;;;;;;31.23;19.37;;;;;;;-5.89;63.33;92852.72;523762;28;857;-68
2024/01/15 00:23:36;;;;;;;28.35;17.92;;;;;;;-5.85;63.12;92850.59;523948;28;905;-68
2024/01/15 00:23:52;;;;;;;26.37;17.30;;;;;;;-5.83;63.67;92853.53;523906;28;810;-68
2024/01/15 00:24:07;;;;;;;28.20;17.63;;;;;;;-5.80;62.99;92839.91;523905;28;928;-68
2024/01/15 00:24:23;;;;;;;30.90;18.70;;;;;;;-5.77;62.84;92843.63;523925;28;834;-68
2024/01/15 00:24:38;;;;;;;27.97;18.67;;;;;;;-5.76;63.37;92840.47;523851;28;929;-68
2024/01/15 00:24:53;;;;;;;27.50;18.13;;;;;;;-5.74;63.40;92848.81;523815;28;861;-68
2024/01/15 00:25:09;;;;;;;30.90;18.43;;;;;;;-5.74;62.61;92850.78;523908;28;790;-68
2024/01/15 00:25:24;;;;;;;33.83;19.58;;;;;;;-5.76;62.72;92842.44;523858;28;826;-68
2024/01/15 00:25:41;;;;;;;32.03;20.10;;;;;;;-5.78;62.82;92855.59;523834;28;856;-68
2024/01/15 00:25:56;;;;;;;29.35;18.92;;;;;;;-5.81;63.24;92846.50;523971;28;888;-68
2024/01/15 00:26:12;;;;;;;27.20;17.00;;;;;;;-5.78;63.31;92847.53;523846;28;848;-68
2024/01/15 00:26:28;;;;;;;29.35;16.38;;;;;;;-5.77;63.42;92849.00;523922;28;840;-67
2024/01/15 00:26:43;;;;;;;27.98;16.88;;;;;;;-5.76;63.15;92840.47;523829;28;790;-68
2024/01/15 00:26:59;;;;;;;24.17;16.20;;;;;;;-5.76;63.17;92843.16;523866;28;927;-68
2024/01/15 00:27:14;;;;;;;24.00;14.95;;;;;;;-5.85;62.89;92847.91;523895;28;856;-68
2024/01/15 00:27:30;;;;;;;26.40;14.90;;;;;;;-5.90;63.17;92854.66;523826;28;1007;-68
2024/01/15 00:27:45;;;;;;;27.08;15.15;;;;;;;-5.99;62.88;92843.22;523900;28;790;-68
2024/01/15 00:28:00;;;;;;;22.80;14.63;;;;;;;-6.05;63.39;92843.13;523867;28;1088;-68
2024/01/15 00:28:16;;;;;;;20.27;14.10;;;;;;;-6.06;63.21;92846.25;523865;28;931;-68
2024/01/15 00:28:31;;;;;;;21.50;13.70;;;;;;;-6.07;63.61;92844.75;523905;28;1120;-68
2024/01/15 00:28:47;;;;;;;23.10;13.98;;;;;;;-6.25;63.58;92821.44;523875;28;833;-68
2024/01/15 00:29:03;;;;;;;22.73;14.23;;;;;;;-6.04;63.38;92846.53;523779;28;790;-68
2024/01/15 00:29:18;;;;;;;23.95;14.00;;;;;;;-6.03;63.24;92850.72;523968;28;829;-68
2024/01/15 00:29:34;;;;;;;23.30;13.27;;;;;;;-6.01;63.45;92842.94;523856;28;778;-68
2024/01/15 00:29:53;;;;;;;18.90;12.68;;;;;;;-5.98;63.59;92847.41;523963;28;842;-68
2024/01/15 00:30:09;;;;;;;16.73;11.68;;;;;;;-5.94;63.15;92850.66;523941;28;825;-68
2024/01/15 00:30:25;;;;;;;19.00;11.50;;;;;;;-5.94;63.32;92851.41;523745;28;849;-68
2024/01/15 00:30:40;;;;;;;19.63;11.07;;;;;;;-5.91;63.40;92849.75;523787;28;763;-68
2024/01/15 00:30:56;;;;;;;17.60;10.23;;;;;;;-5.91;63.18;92855.84;523880;28;813;-68
2024/01/15 00:31:11;;;;;;;16.13;9.83;;;;;;;-5.92;63.14;92849.00;523831;28;794;-68
2024/01/15 00:31:27;;;;;;;14.32;9.50;;;;;;;-6.01;63.51;92846.38;523954;28;787;-68
2024/01/15 00:31:42;;;;;;;12.43;9.30;;;;;;;-6.12;63.52;92846.13;523784;28;830;-68
2024/01/15 00:31:58;;;;;;;13.93;9.45;;;;;;;-6.15;63.96;92846.31;523882;28;763;-68
2024/01/15 00:32:13;;;;;;;14.37;9.13;;;;;;;-6.20;64.00;92851.13;523888;28;786;-68
2024/01/15 00:32:29;;;;;;;14.68;9.48;;;;;;;-6.20;64.26;92845.75;523934;28;789;-68
2024/01/15 00:32:44;;;;;;;15.83;10.67;;;;;;;-6.20;64.10;92845.00;523682;28;842;-68
2024/01/15 00:32:59;;;;;;;16.30;11.00;;;;;;;-6.19;64.28;92846.47;523717;28;859;-68
2024/01/15 00:33:15;;;;;;;16.63;10.80;;;;;;;-6.18;64.10;92846.03;523637;28;786;-68
2024/01/15 00:33:31;;;;;;;17.08;10.95;;;;;;;-6.14;63.81;92850.47;523698;28;857;-68
2024/01/15 00:33:46;;;;;;;17.47;11.10;;;;;;;-6.14;64.00;92847.78;523725;28;794;-68
2024/01/15 00:34:02;;;;;;;17.52;11.50;;;;;;;-6.13;63.86;92847.34;523679;28;802;-68
2024/01/15 00:34:17;;;;;;;18.70;11.27;;;;;;;-6.12;63.84;92851.50;523642;28;968;-68
2024/01/15 00:34:32;;;;;;;18.00;10.68;;;;;;;-6.10;64.13;92854.47;523669;28;849;-68
2024/01/15 00:34:48;;;;;;;19.07;11.40;;;;;;;-6.08;63.59;92844.00;523910;28;771;-68
2024/01/15 00:35:04;;;;;;;18.98;11.73;;;;;;;-6.06;63.98;92843.56;523838;28;849;-68
2024/01/15 00:35:19;;;;;;;17.95;11.10;;;;;;;-6.03;63.98;92848.03;523846;28;860;-68
2024/01/15 00:35:35;;;;;;;17.23;10.70;;;;;;;-6.03;63.63;92848.78;523761;28;1922;-68
2024/01/15 00:35:51;;;;;;;17.58;11.02;;;;;;;-6.04;63.58;92846.53;523728;28;825;-68
2024/01/15 00:36:06;;;;;;;16.95;10.90;;;;;;;-6.03;63.84;92845.34;523821;28;786;-68
2024/01/15 00:36:22;;;;;;;16.60;10.30;;;;;;;-6.02;64.27;92849.53;523890;28;846;-68
2024/01/15 00:36:37;;;;;;;16.97;9.53;;;;;;;-6.07;63.74;92848.19;523836;28;1087;-68
2024/01/15 00:36:53;;;;;;;17.23;9.40;;;;;;;-6.07;63.60;92847.44;523875;28;829;-68
2024/01/15 00:37:08;;;;;;;16.80;9.50;;;;;;;-6.07;63.73;92842.06;523889;28;1111;-68
2024/01/15 00:37:24;;;;;;;15.83;8.93;;;;;;;-6.07;63.90;92844.75;523754;28;1097;-68
2024/01/15 00:37:40;;;;;;;15.80;8.70;;;;;;;-6.07;63.66;92847.44;523858;28;1599;-68
2024/01/15 00:37:55;;;;;;;14.85;9.00;;;;;;;-6.08;63.58;92854.75;523808;28;785;-68
2024/01/15 00:38:10;;;;;;;14.97;9.43;;;;;;;-6.09;63.45;92849.84;523892;28;837;-68
2024/01/15 00:38:26;;;;;;;14.65;9.27;;;;;;;-6.09;63.17;92849.84;523817;28;865;-68
2024/01/15 00:38:42;;;;;;;14.57;8.80;;;;;;;-6.07;63.31;92850.88;523733;28;790;-68
2024/01/15 00:38:57;;;;;;;16.67;8.75;;;;;;;-6.04;63.16;92847.28;523880;28;802;-68
2024/01/15 00:39:13;;;;;;;15.95;9.07;;;;;;;-6.01;63.40;92848.31;523856;28;821;-68
2024/01/15 00:39:28;;;;;;;15.17;9.53;;;;;;;-6.00;63.35;92855.19;523940;28;798;-68
2024/01/15 00:39:44;;;;;;;16.23;9.70;;;;;;;-5.99;63.21;92846.66;523888;28;782;-68
2024/01/15 00:39:59;;;;;;;14.23;9.13;;;;;;;-5.95;63.36;92857.22;523827;28;920;-68
2024/01/15 00:40:15;;;;;;;15.33;9.23;;;;;;;-5.91;63.39;92852.44;523826;28;754;-68
2024/01/15 00:40:30;;;;;;;16.30;10.18;;;;;;;-5.88;63.41;92854.19;523894;28;842;-68
2024/01/15 00:40:45;;;;;;;14.97;10.47;;;;;;;-5.86;62.99;92851.78;523815;28;786;-68
2024/01/15 00:41:01;;;;;;;16.17;9.82;;;;;;;-5.84;63.10;92858.19;523885;28;782;-67
2024/01/15 00:41:18;;;;;;;16.45;9.23;;;;;;;-6.12;62.91;92819.28;523770;28;920;-68
2024/01/15 00:41:33;;;;;;;16.00;9.48;;;;;;;-5.86;62.80;92862.53;523829;28;845;-68
2024/01/15 00:41:49;;;;;;;15.02;9.88;;;;;;;-5.85;63.07;92858.66;523924;28;829;-68
2024/01/15 00:42:04;;;;;;;13.53;9.57;;;;;;;-5.87;63.03;92847.63;523855;28;758;-68
2024/01/15 00:42:20;;;;;;;14.35;9.57;;;;;;;-5.92;62.78;92848.25;523721;28;857;-68
2024/01/15 00:42:35;;;;;;;15.90;9.43;;;;;;;-5.92;62.57;92850.94;523690;28;802;-68
2024/01/15 00:42:51;;;;;;;16.90;9.82;;;;;;;-5.93;62.92;92855.56;523656;28;909;-68
2024/01/15 00:43:07;;;;;;;17.27;9.97;;;;;;;-5.92;62.67;92850.94;523670;28;846;-68
2024/01/15 00:43:23;;;;;;;15.32;9.70;;;;;;;-5.90;62.48;92854.66;523683;28;904;-68
2024/01/15 00:43:38;;;;;;;15.37;10.80;;;;;;;-5.88;62.83;92849.56;523736;28;845;-68
2024/01/15 00:43:53;;;;;;;15.13;10.82;;;;;;;-5.85;62.48;92855.97;523701;28;865;-68
2024/01/15 00:44:09;;;;;;;14.03;10.47;;;;;;;-5.82;62.66;92857.69;523682;28;921;-68
2024/01/15 00:44:24;;;;;;;16.42;11.05;;;;;;;-5.80;62.40;92849.91;523775;28;790;-68
2024/01/15 00:44:40;;;;;;;19.03;12.07;;;;;;;-5.78;62.04;92853.63;523874;28;794;-67
2024/01/15 00:44:55;;;;;;;23.67;14.80;;;;;;;-5.78;62.03;92845.56;523870;28;1697;-68
2024/01/15 00:45:11;;;;;;;25.87;16.43;;;;;;;-5.77;62.13;92847.06;523836;28;920;-68
2024/01/15 00:45:26;;;;;;;29.20;16.30;;;;;;;-5.74;62.26;92848.81;523819;28;866;-68
2024/01/15 00:45:42;;;;;;;28.27;15.45;;;;;;;-5.73;62.38;92850.31;523811;28;798;-68
2024/01/15 00:45:57;;;;;;;23.30;14.93;;;;;;;-5.71;61.80;92852.53;523810;28;798;-68
2024/01/15 00:46:12;;;;;;;24.60;15.32;;;;;;;-5.70;62.17;92854.03;523815;28;904;-68
2024/01/15 00:46:28;;;;;;;25.03;15.83;;;;;;;-5.81;62.38;92832.31;523872;28;833;-68
2024/01/15 00:46:47;;;;;;;23.55;15.07;;;;;;;-5.69;61.98;92855.50;523839;28;924;-68
2024/01/15 00:47:02;;;;;;;22.90;14.27;;;;;;;-5.71;61.75;92855.22;524558;28;841;-67
2024/01/15 00:47:18;;;;;;;21.50;13.37;;;;;;;-5.74;62.32;92859.56;523856;28;755;-68
2024/01/15 00:47:34;;;;;;;20.40;12.82;;;;;;;-5.75;62.30;92858.09;523816;28;884;-68
2024/01/15 00:47:50;;;;;;;20.10;13.65;;;;;;;-5.75;61.92;92854.66;523927;28;846;-68
2024/01/15 00:48:05;;;;;;;25.92;15.32;;;;;;;-5.74;62.04;92848.09;523846;28;790;-68
2024/01/15 00:48:21;;;;;;;32.50;17.97;;;;;;;-6.00;62.52;92820.25;523788;28;828;-68
2024/01/15 00:48:37;;;;;;;34.30;19.75;;;;;;;-5.73;62.50;92861.06;523833;28;910;-68
2024/01/15 00:48:52;;;;;;;33.78;19.67;;;;;;;-5.74;62.22;92851.50;523840;28;759;-68
2024/01/15 00:49:07;;;;;;;33.57;19.73;;;;;;;-5.74;62.74;92859.56;523832;28;797;-68
2024/01/15 00:49:24;;;;;;;34.75;19.80;;;;;;;-5.72;62.62;92861.81;523849;28;861;-68
2024/01/15 00:49:39;;;;;;;30.10;18.80;;;;;;;-5.73;62.38;92849.56;523812;28;865;-68
2024/01/15 00:49:55;;;;;;;26.97;17.03;;;;;;;-5.75;62.35;92858.09;523790;28;852;-68
2024/01/15 00:50:10;;;;;;;29.23;17.05;;;;;;;-5.75;62.43;92857.34;523914;28;873;-68
2024/01/15 00:50:26;;;;;;;29.80;17.47;;;;;;;-5.76;62.70;92855.88;523808;28;758;-68
2024/01/15 00:50:41;;;;;;;27.38;16.88;;;;;;;-5.77;63.11;92851.69;523760;28;785;-68
2024/01/15 00:50:57;;;;;;;25.47;16.37;;;;;;;-5.79;62.70;92851.41;523721;28;759;-68
2024/01/15 00:51:12;;;;;;;25.70;15.65;;;;;;;-5.85;62.77;92850.59;523793;28;888;-68
2024/01/15 00:51:27;;;;;;;21.60;13.93;;;;;;;-5.93;62.72;92850.19;523886;28;850;-68
2024/01/15 00:51:43;;;;;;;21.15;14.25;;;;;;;-5.99;62.67;92852.03;523789;28;1081;-68
2024/01/15 00:51:58;;;;;;;23.97;15.43;;;;;;;-6.29;63.36;92813.56;523881;28;825;-68
2024/01/15 00:52:14;;;;;;;22.98;15.00;;;;;;;-6.11;63.06;92850.31;523847;28;774;-68
2024/01/15 00:52:29;;;;;;;22.73;15.00;;;;;;;-6.13;63.56;92854.66;523809;28;802;-68
2024/01/15 00:52:45;;;;;;;24.35;15.10;;;;;;;-6.13;63.43;92850.03;523809;28;896;-68
2024/01/15 00:53:00;;;;;;;27.07;15.73;;;;;;;-6.15;63.59;92857.81;523880;28;816;-68
2024/01/15 00:53:15;;;;;;;26.13;16.25;;;;;;;-6.14;63.80;92853.16;523855;28;1139;-68
2024/01/15 00:53:31;;;;;;;23.50;15.77;;;;;;;-6.19;63.31;92841.09;523843;28;842;-68
2024/01/15 00:53:46;;;;;;;24.63;16.07;;;;;;;-6.14;63.56;92848.53;523794;28;815;-68
2024/01/15 00:54:02;;;;;;;27.40;15.83;;;;;;;-6.13;63.31;92855.41;523787;28;807;-68
2024/01/15 00:54:17;;;;;;;28.57;16.07;;;;;;;-6.16;63.72;92848.25;523879;28;774;-68
2024/01/15 00:54:33;;;;;;;26.50;17.05;;;;;;;-6.26;64.10;92847.53;523843;28;805;-68
2024/01/15 00:54:48;;;;;;;24.63;16.43;;;;;;;-6.38;64.40;92848.53;523927;28;860;-68
2024/01/15 00:55:04;;;;;;;23.70;15.57;;;;;;;-6.46;64.01;92849.31;523815;28;793;-68
2024/01/15 00:55:19;;;;;;;22.65;15.00;;;;;;;-6.52;64.28;92846.47;523815;28;929;-68
2024/01/15 00:55:36;;;;;;;22.13;14.33;;;;;;;-6.52;64.41;92841.13;523768;28;1914;-68
2024/01/15 00:55:51;;;;;;;22.08;13.27;;;;;;;-6.51;64.60;92845.31;523811;28;830;-68
2024/01/15 00:56:07;;;;;;;19.45;12.68;;;;;;;-6.49;64.65;92845.59;523791;28;866;-68
2024/01/15 00:56:22;;;;;;;19.33;13.20;;;;;;;-6.47;64.43;92847.81;523868;28;905;-67
2024/01/15 00:56:37;;;;;;;22.90;13.75;;;;;;;-6.45;64.06;92848.84;523736;28;936;-68
2024/01/15 00:56:54;;;;;;;23.13;14.23;;;;;;;-6.41;64.17;92854.06;523819;28;838;-68
2024/01/15 00:57:10;;;;;;;19.13;13.25;;;;;;;-6.39;64.29;92847.03;523884;28;822;-68
2024/01/15 00:57:25;;;;;;;15.85;11.13;;;;;;;-6.41;64.09;92848.69;523790;28;983;-68
2024/01/15 00:57:41;;;;;;;15.97;10.87;;;;;;;-6.46;64.23;92843.94;523845;28;806;-68
2024/01/15 00:57:56;;;;;;;18.98;11.98;;;;;;;-6.56;64.26;92851.28;523836;28;790;-68
2024/01/15 00:58:12;;;;;;;20.07;12.30;;;;;;;-6.56;64.20;92845.91;523807;28;853;-68
2024/01/15 00:58:27;;;;;;;19.98;12.50;;;;;;;-6.54;64.41;92843.50;523846;28;834;-68
2024/01/15 00:58:42;;;;;;;20.80;13.13;;;;;;;-6.49;64.41;92842.91;523830;28;916;-68
2024/01/15 00:58:58;;;;;;;23.40;14.30;;;;;;;-6.44;64.07;92844.22;523838;28;814;-68
2024/01/15 00:59:14;;;;;;;23.77;14.70;;;;;;;-6.37;64.46;92846.59;523807;28;798;-68
2024/01/15 00:59:30;;;;;;;23.60;14.45;;;;;;;-6.33;64.06;92844.47;523756;28;841;-68
2024/01/15 00:59:47;;;;;;;25.27;14.98;;;;;;;-6.29;63.82;92837.72;523813;28;786;-68
2024/01/15 01:00:03;;;;;;;26.55;16.38;;;;;;;-6.31;64.08;92832.06;523886;28;904;-68
2024/01/15 01:00:18;;;;;;;26.20;16.05;;;;;;;-6.24;63.73;92837.09;523806;28;996;-68
2024/01/15 01:00:34;;;;;;;27.57;15.57;;;;;;;-6.22;63.76;92848.16;523815;28;763;-68
2024/01/15 01:00:49;;;;;;;34.38;19.02;;;;;;;-6.20;63.66;92839.63;523816;28;885;-68
2024/01/15 01:01:04;;;;;;;42.37;24.77;;;;;;;-6.16;63.73;92845.56;523709;28;781;-68
2024/01/15 01:01:20;;;;;;;48.97;27.65;;;;;;;-6.14;63.49;92843.16;523881;28;798;-68
2024/01/15 01:01:37;;;;;;;47.30;26.73;;;;;;;-6.14;63.62;92847.78;523845;28;853;-68
2024/01/15 01:01:53;;;;;;;42.80;24.95;;;;;;;-6.14;63.96;92842.41;523782;28;869;-68
2024/01/15 01:02:08;;;;;;;42.93;24.13;;;;;;;-6.13;63.96;92839.28;523800;28;770;-68
2024/01/15 01:02:24;;;;;;;38.58;22.77;;;;;;;-6.10;63.69;92840.28;523815;28;794;-68
2024/01/15 01:02:39;;;;;;;36.23;21.00;;;;;;;-6.09;63.35;92845.22;523812;28;822;-68
2024/01/15 01:02:55;;;;;;;34.80;20.23;;;;;;;-6.07;63.71;92840.13;523706;28;782;-68
2024/01/15 01:03:10;;;;;;;34.20;20.03;;;;;;;-6.04;63.43;92838.50;523688;28;852;-68
2024/01/15 01:03:25;;;;;;;41.83;22.30;;;;;;;-6.03;63.28;92842.66;523601;28;906;-68
2024/01/15 01:03:41;;;;;;;41.67;22.83;;;;;;;-6.04;63.47;92843.88;523529;28;1185;-68
2024/01/15 01:03:56;;;;;;;36.50;20.97;;;;;;;-6.06;63.38;92844.28;523718;28;810;-68
2024/01/15 01:04:12;;;;;;;39.03;21.23;;;;;;;-6.11;63.85;92842.25;523695;28;842;-68
2024/01/15 01:04:28;;;;;;;39.25;22.23;;;;;;;-6.15;64.05;92843.63;524024;28;1326;-68
2024/01/15 01:04:44;;;;;;;37.58;21.58;;;;;;;-6.19;64.27;92839.16;525643;28;1004;-68
2024/01/15 01:04:59;;;;;;;36.40;19.97;;;;;;;-6.21;64.09;92840.81;525872;28;797;-67
2024/01/15 01:05:14;;;;;;;30.05;18.10;;;;;;;-6.20;63.85;92837.69;525904;28;859;-68
2024/01/15 01:05:30;;;;;;;29.97;17.97;;;;;;;-6.17;64.04;92844.06;525948;28;877;-68
2024/01/15 01:05:45;;;;;;;31.38;18.58;;;;;;;-6.12;64.31;92843.44;525760;28;1479;-68
2024/01/15 01:06:01;;;;;;;30.83;18.97;;;;;;;-6.09;64.17;92844.47;525881;28;963;-68
2024/01/15 01:06:16;;;;;;;31.40;18.50;;;;;;;-6.13;64.63;92839.28;525717;28;912;-68
2024/01/15 01:06:32;;;;;;;29.50;17.40;;;;;;;-6.19;64.32;92841.84;525903;28;785;-68
2024/01/15 01:06:47;;;;;;;29.93;17.17;;;;;;;-6.23;64.61;92835.16;525919;28;774;-68
2024/01/15 01:07:03;;;;;;;29.58;16.92;;;;;;;-6.26;64.86;92842.19;525945;28;844;-68
2024/01/15 01:07:19;;;;;;;28.20;16.58;;;;;;;-6.25;65.08;92832.94;525909;28;901;-68
2024/01/15 01:07:35;;;;;;;25.27;15.85;;;;;;;-6.21;65.05;92840.81;525823;28;825;-68
2024/01/15 01:07:50;;;;;;;26.37;16.17;;;;;;;-6.19;64.60;92847.22;525959;28;762;-68
2024/01/15 01:08:05;;;;;;;27.58;16.33;;;;;;;-6.15;65.00;92840.94;525915;28;849;-68
2024/01/15 01:08:21;;;;;;;27.67;16.47;;;;;;;-6.11;65.01;92844.19;525853;28;873;-68
2024/01/15 01:08:36;;;;;;;26.45;16.73;;;;;;;-6.09;64.74;92839.09;525932;28;786;-68
2024/01/15 01:08:52;;;;;;;24.20;16.03;;;;;;;-6.11;64.95;92842.25;525903;28;802;-68
2024/01/15 01:09:07;;;;;;;26.67;16.83;;;;;;;-6.11;65.24;92842.25;525900;28;856;-68
2024/01/15 01:09:23;;;;;;;30.03;17.67;;;;;;;-6.11;64.70;92853.00;525952;28;813;-68
2024/01/15 01:09:38;;;;;;;30.20;17.50;;;;;;;-6.09;64.61;92839.09;525908;28;870;-68
2024/01/15 01:09:54;;;;;;;29.43;18.03;;;;;;;-6.37;64.99;92800.94;525796;28;829;-67
2024/01/15 01:10:10;;;;;;;30.80;18.50;;;;;;;-6.12;64.71;92843.44;525748;28;897;-68
2024/01/15 01:10:27;;;;;;;31.30;18.27;;;;;;;-6.14;64.53;92845.84;525532;28;838;-68
2024/01/15 01:10:42;;;;;;;29.05;18.40;;;;;;;-6.17;64.36;92836.75;525742;28;964;-68
2024/01/15 01:10:58;;;;;;;28.77;18.17;;;;;;;-6.15;64.67;92838.25;525897;28;862;-68
2024/01/15 01:11:14;;;;;;;29.77;17.03;;;;;;;-6.15;64.86;92838.25;525706;28;935;-68
2024/01/15 01:11:30;;;;;;;30.27;16.77;;;;;;;-6.14;64.95;92839.72;525955;28;868;-68
2024/01/15 01:11:45;;;;;;;28.47;17.13;;;;;;;-6.12;64.53;92840.75;525844;28;860;-68
2024/01/15 01:12:01;;;;;;;28.52;17.75;;;;;;;-6.09;64.30;92834.47;525888;28;848;-68
2024/01/15 01:12:16;;;;;;;29.80;17.17;;;;;;;-6.05;64.18;92837.75;525917;28;833;-68
2024/01/15 01:12:32;;;;;;;28.48;17.05;;;;;;;-6.03;64.43;92835.34;525873;28;1053;-68
2024/01/15 01:12:47;;;;;;;27.07;17.73;;;;;;;-6.01;64.29;92837.56;525898;28;790;-68
2024/01/15 01:13:03;;;;;;;28.10;17.98;;;;;;;-6.00;64.04;92836.38;525911;28;868;-68
2024/01/15 01:13:18;;;;;;;28.30;18.33;;;;;;;-5.98;64.20;92828.59;525917;28;761;-68
2024/01/15 01:13:34;;;;;;;28.17;18.23;;;;;;;-5.96;63.84;92831.56;525820;28;868;-68
2024/01/15 01:13:49;;;;;;;28.27;17.80;;;;;;;-5.96;63.82;92836.94;525942;28;793;-68
2024/01/15 01:14:05;;;;;;;25.55;17.23;;;;;;;-6.00;63.92;92833.69;525819;28;810;-68
2024/01/15 01:14:20;;;;;;;24.83;16.87;;;;;;;-6.03;64.32;92832.66;525888;28;765;-68